Time;durP1;ratioP1;P1;durP2;ratioP2;P2;SDS_P1;SDS_P2;PMS_P1;PMS_P2;Temp;Humidity;BMP_temperature;BMP_pressure;BME280_temperature;BME280_humidity;BME280_pressure;Samples;Min_cycle;Max_cycle;Signal;HPM_P1;HPM_P2
2023/01/31 00:00:30;;;;;;;23.08;3.03;;;3.00;71.50;;;;;;4145221;28;20654;-88
2023/01/31 00:02:49;;;;;;;21.23;2.08;;;3.00;71.60;;;;;;4146891;28;20032;-89
2023/01/31 00:05:08;;;;;;;22.92;2.63;;;3.00;71.70;;;;;;4151810;28;20152;-89
2023/01/31 00:07:28;;;;;;;25.77;2.92;;;3.00;71.90;;;;;;4152015;28;20047;-89
2023/01/31 00:09:47;;;;;;;31.38;3.03;;;3.00;72.00;;;;;;4147156;28;20125;-89
2023/01/31 00:12:06;;;;;;;28.40;3.17;;;3.00;72.30;;;;;;4151266;28;20087;-88
2023/01/31 00:14:25;;;;;;;17.38;2.20;;;3.00;72.30;;;;;;4143758;28;20041;-88
2023/01/31 00:16:44;;;;;;;21.98;2.22;;;3.00;72.40;;;;;;4147607;28;20189;-88
2023/01/31 00:19:03;;;;;;;19.58;2.55;;;3.00;72.60;;;;;;4143015;28;20522;-87
2023/01/31 00:21:27;;;;;;;23.13;2.53;;;3.00;72.80;;;;;;4136382;28;20041;-88
2023/01/31 00:23:47;;;;;;;19.77;2.38;;;3.00;72.90;;;;;;4145740;28;20632;-88
2023/01/31 00:26:15;;;;;;;22.05;2.47;;;3.00;72.90;;;;;;4147100;28;21648;-87
2023/01/31 00:28:35;;;;;;;26.90;3.83;;;3.10;72.90;;;;;;4147080;28;20390;-88
2023/01/31 00:30:35;;;;;;;17.17;2.20;;;3.20;72.90;;;;;;4144362;28;20083;-87
2023/01/31 00:32:36;;;;;;;19.52;2.47;;;3.10;72.70;;;;;;4150521;28;20028;-89
2023/01/31 00:34:37;;;;;;;26.20;2.83;;;3.00;72.50;;;;;;4159553;28;20136;-88
2023/01/31 00:36:37;;;;;;;37.50;3.78;;;3.10;72.50;;;;;;4144698;28;22079;-88
2023/01/31 00:38:38;;;;;;;18.30;2.65;;;3.10;72.50;;;;;;4150400;28;20029;-88
2023/01/31 00:40:39;;;;;;;24.13;2.40;;;3.10;72.40;;;;;;4146107;28;20038;-88
2023/01/31 00:42:39;;;;;;;25.85;3.50;;;3.10;72.30;;;;;;4150341;28;20048;-88
2023/01/31 00:44:40;;;;;;;22.17;2.88;;;3.10;72.20;;;;;;4164617;28;20036;-87
2023/01/31 00:46:41;;;;;;;23.77;2.28;;;3.10;72.20;;;;;;4136974;28;20037;-88
2023/01/31 00:48:42;;;;;;;21.20;2.97;;;3.20;72.30;;;;;;4155380;28;20697;-89
2023/01/31 00:50:43;;;;;;;16.70;2.80;;;3.10;72.10;;;;;;4140104;28;20030;-89
2023/01/31 00:52:43;;;;;;;24.92;3.00;;;3.10;72.10;;;;;;4149368;28;20061;-89
2023/01/31 00:54:44;;;;;;;19.50;3.22;;;3.10;72.10;;;;;;4148795;28;20037;-89
2023/01/31 00:56:45;;;;;;;24.33;2.60;;;3.10;72.10;;;;;;4150148;28;20105;-88
2023/01/31 00:58:45;;;;;;;21.52;2.97;;;3.10;72.10;;;;;;4164562;28;20026;-88
2023/01/31 01:00:46;;;;;;;29.90;3.47;;;3.10;72.80;;;;;;4190266;28;20015;-88
2023/01/31 01:02:47;;;;;;;13.82;1.92;;;3.10;72.20;;;;;;4161935;28;20026;-89
2023/01/31 01:04:48;;;;;;;19.23;2.45;;;3.10;72.30;;;;;;4153975;28;20044;-88
2023/01/31 01:06:49;;;;;;;22.95;2.85;;;3.10;72.30;;;;;;4150064;28;20783;-89
2023/01/31 01:09:09;;;;;;;18.33;1.95;;;3.10;72.30;;;;;;4153992;28;20036;-86
2023/01/31 01:11:30;;;;;;;24.60;2.38;;;3.10;72.30;;;;;;4149582;28;20026;-88
2023/01/31 01:13:51;;;;;;;18.27;2.17;;;3.10;72.20;;;;;;4140979;28;20672;-89
2023/01/31 01:16:16;;;;;;;23.48;2.50;;;3.00;72.20;;;;;;4151508;28;20061;-87
2023/01/31 01:18:36;;;;;;;23.15;2.47;;;3.10;72.30;;;;;;4147477;28;20380;-86
2023/01/31 01:21:13;;;;;;;10.15;1.58;;;3.00;72.20;;;;;;4174588;28;21021;-85
2023/01/31 01:23:35;;;;;;;13.32;2.03;;;3.00;72.20;;;;;;4144122;28;20057;-86
2023/01/31 01:25:55;;;;;;;16.55;2.30;;;3.00;72.20;;;;;;4145380;28;20030;-86
2023/01/31 01:28:16;;;;;;;15.45;1.77;;;3.00;72.20;;;;;;4143033;28;21214;-86
2023/01/31 01:30:38;;;;;;;16.05;1.70;;;3.00;72.20;;;;;;4143899;28;20572;-86
2023/01/31 01:32:58;;;;;;;16.42;1.90;;;3.00;72.20;;;;;;4144728;28;20111;-87
2023/01/31 01:35:19;;;;;;;18.10;2.13;;;3.00;72.20;;;;;;4156127;28;22082;-87
2023/01/31 01:37:40;;;;;;;16.75;2.58;;;3.10;72.20;;;;;;4140720;28;20506;-87
2023/01/31 01:40:00;;;;;;;11.65;1.52;;;3.00;72.00;;;;;;4138347;28;20962;-86
2023/01/31 01:42:01;;;;;;;18.33;1.48;;;3.00;71.90;;;;;;4152308;28;20108;-86
2023/01/31 01:44:46;;;;;;;14.90;1.70;;;3.20;72.10;;;;;;4145707;28;20509;-87
2023/01/31 01:47:35;;;;;;;10.32;1.85;;;3.00;71.80;;;;;;4149403;28;20037;-87
2023/01/31 01:50:02;;;;;;;20.80;1.90;;;3.10;71.60;;;;;;4145675;28;20063;-87
2023/01/31 01:52:08;;;;;;;16.98;1.75;;;3.10;71.30;;;;;;4163413;28;20521;-88
2023/01/31 01:54:15;;;;;;;15.07;1.58;;;3.20;71.20;;;;;;4145268;28;20032;-88
2023/01/31 01:56:22;;;;;;;15.02;1.83;;;3.10;70.90;;;;;;4172671;28;20037;-86
2023/01/31 01:58:30;;;;;;;10.98;1.17;;;3.20;70.80;;;;;;4159935;28;20029;-86
2023/01/31 02:00:32;;;;;;;12.88;1.73;;;3.20;70.70;;;;;;4129181;28;20117;-87
2023/01/31 02:02:33;;;;;;;12.25;1.52;;;3.10;70.50;;;;;;4144781;28;20087;-86
2023/01/31 02:04:38;;;;;;;15.90;1.70;;;3.20;70.60;;;;;;4148793;28;20030;-88
2023/01/31 02:06:39;;;;;;;12.93;1.55;;;3.20;70.40;;;;;;4148052;28;20521;-87
2023/01/31 02:08:41;;;;;;;17.75;1.73;;;3.10;70.20;;;;;;4146793;28;20033;-88
2023/01/31 02:11:00;;;;;;;14.53;1.93;;;3.30;70.30;;;;;;4139900;28;20639;-87
2023/01/31 02:13:02;;;;;;;9.45;1.67;;;3.20;70.40;;;;;;4157588;28;20076;-88
2023/01/31 02:15:03;;;;;;;14.23;2.00;;;3.20;70.30;;;;;;4144189;28;20033;-87
2023/01/31 02:17:03;;;;;;;16.52;1.83;;;3.20;70.40;;;;;;4144671;28;20060;-88
2023/01/31 02:19:18;;;;;;;11.80;1.95;;;3.20;70.50;;;;;;4146654;28;20032;-87
2023/01/31 02:21:57;;;;;;;15.93;2.00;;;3.20;70.50;;;;;;4154156;28;20047;-88
2023/01/31 02:24:35;;;;;;;16.58;1.88;;;3.30;70.60;;;;;;4147526;28;20140;-87
2023/01/31 02:27:24;;;;;;;20.40;1.70;;;3.30;70.50;;;;;;4162958;28;20572;-87
2023/01/31 02:29:56;;;;;;;16.67;2.00;;;3.30;70.50;;;;;;4083512;28;20807;-88
2023/01/31 02:32:33;;;;;;;14.65;1.83;;;3.30;70.40;;;;;;4147669;28;20026;-86
2023/01/31 02:35:01;;;;;;;12.75;1.65;;;3.30;70.30;;;;;;4149310;28;20903;-87
2023/01/31 02:37:27;;;;;;;14.68;1.75;;;3.40;70.40;;;;;;4134475;28;20069;-87
2023/01/31 02:39:54;;;;;;;20.95;2.42;;;3.40;71.10;;;;;;4142378;28;20033;-86
2023/01/31 02:42:27;;;;;;;14.90;1.90;;;3.40;70.40;;;;;;4148070;28;20108;-88
2023/01/31 02:45:00;;;;;;;17.48;1.98;;;3.40;70.40;;;;;;4146485;28;20026;-89
2023/01/31 02:47:25;;;;;;;15.30;1.83;;;3.40;70.40;;;;;;4145744;28;20047;-88
2023/01/31 02:49:36;;;;;;;14.80;1.73;;;3.60;70.60;;;;;;4125824;28;20542;-89
2023/01/31 02:52:14;;;;;;;20.58;1.75;;;3.50;70.60;;;;;;4145481;28;20060;-87
2023/01/31 02:54:19;;;;;;;18.55;2.10;;;3.50;70.80;;;;;;4137839;28;20030;-88
2023/01/31 02:56:30;;;;;;;19.90;2.25;;;3.50;70.90;;;;;;4147690;28;20117;-88
2023/01/31 02:58:35;;;;;;;22.98;2.15;;;3.50;71.20;;;;;;4148129;28;20748;-88
2023/01/31 03:00:39;;;;;;;14.63;1.67;;;3.50;71.50;;;;;;4125346;28;20666;-88
2023/01/31 03:02:40;;;;;;;18.70;1.85;;;3.50;71.90;;;;;;4150153;28;20371;-88
2023/01/31 03:04:42;;;;;;;12.90;1.75;;;3.50;72.10;;;;;;4144026;28;20036;-89
2023/01/31 03:06:53;;;;;;;16.75;2.08;;;3.50;72.20;;;;;;4141447;28;20569;-87
2023/01/31 03:09:07;;;;;;;16.73;2.05;;;3.60;72.30;;;;;;4142035;28;20029;-86
2023/01/31 03:11:09;;;;;;;21.30;2.17;;;3.60;72.30;;;;;;4141685;28;20033;-87
2023/01/31 03:13:40;;;;;;;13.77;1.95;;;3.60;72.30;;;;;;4143449;28;20037;-87
2023/01/31 03:18:19;;;;;;;21.13;2.15;;;3.60;72.10;;;;;;4149641;28;20120;-87
2023/01/31 03:20:43;;;;;;;18.58;2.00;;;3.60;72.10;;;;;;4170742;28;20024;-88
2023/01/31 03:22:47;;;;;;;15.82;2.42;;;3.70;72.10;;;;;;4135654;28;20042;-87
2023/01/31 03:24:50;;;;;;;13.60;1.98;;;3.70;72.00;;;;;;4133534;28;20159;-88
2023/01/31 03:26:54;;;;;;;18.02;2.00;;;3.70;72.00;;;;;;4141944;28;20038;-88
2023/01/31 03:28:57;;;;;;;;;;;3.70;72.10;;;;;;4146053;28;20091;-86
2023/01/31 03:31:12;;;;;;;18.05;2.40;;;3.70;72.00;;;;;;4144059;28;19924;-88
2023/01/31 03:33:25;;;;;;;13.77;1.58;;;3.70;71.90;;;;;;4156262;28;20037;-87
2023/01/31 03:35:30;;;;;;;22.75;2.13;;;3.80;71.90;;;;;;4144497;28;20033;-87
2023/01/31 03:37:45;;;;;;;23.23;2.78;;;3.80;71.90;;;;;;4144865;28;20029;-87
2023/01/31 03:40:24;;;;;;;20.40;2.38;;;3.80;71.90;;;;;;4128377;28;20030;-87
2023/01/31 03:42:37;;;;;;;19.40;2.25;;;3.80;71.90;;;;;;4182884;28;20103;-89
2023/01/31 03:45:03;;;;;;;8.52;1.70;;;3.80;71.90;;;;;;4140499;28;20140;-86
2023/01/31 03:47:19;;;;;;;15.85;1.80;;;3.80;71.80;;;;;;4144003;28;20112;-88
2023/01/31 03:49:25;;;;;;;11.70;1.52;;;3.80;71.80;;;;;;4133099;28;20023;-87
2023/01/31 03:51:31;;;;;;;17.73;2.42;;;3.80;71.90;;;;;;4141472;28;20029;-88
2023/01/31 03:53:42;;;;;;;17.30;1.92;;;3.80;71.90;;;;;;4134433;28;20037;-86
2023/01/31 03:55:52;;;;;;;11.18;1.80;;;3.80;71.80;;;;;;4162451;28;20087;-86
2023/01/31 03:57:55;;;;;;;21.67;2.45;;;3.80;71.80;;;;;;4160761;28;20084;-87
2023/01/31 03:59:58;;;;;;;16.02;1.85;;;3.80;71.80;;;;;;4144835;28;20152;-87
2023/01/31 04:02:01;;;;;;;13.95;1.80;;;3.80;71.80;;;;;;4144498;28;20033;-88
2023/01/31 04:04:08;;;;;;;19.25;2.22;;;3.80;71.70;;;;;;4137377;28;20083;-87
2023/01/31 04:06:10;;;;;;;21.23;2.33;;;3.80;71.60;;;;;;4137768;28;20052;-87
2023/01/31 04:08:11;;;;;;;21.02;1.92;;;3.80;71.60;;;;;;4133534;28;20536;-88
2023/01/31 04:10:17;;;;;;;22.20;2.65;;;3.80;71.60;;;;;;4148195;28;20120;-87
2023/01/31 04:12:18;;;;;;;16.08;2.65;;;3.80;71.50;;;;;;4147632;28;20037;-86
2023/01/31 04:14:19;;;;;;;19.75;2.05;;;3.70;71.50;;;;;;4149705;28;20097;-87
2023/01/31 04:16:20;;;;;;;22.00;2.45;;;3.80;71.50;;;;;;4130200;28;20536;-88
2023/01/31 04:18:27;;;;;;;17.95;2.15;;;3.80;71.50;;;;;;4173520;28;20040;-89
2023/01/31 04:20:48;;;;;;;20.40;2.33;;;3.80;71.50;;;;;;4156559;28;20048;-87
2023/01/31 04:22:49;;;;;;;18.10;2.65;;;3.80;71.50;;;;;;4145429;28;20513;-87
2023/01/31 04:25:10;;;;;;;17.20;2.63;;;3.80;71.60;;;;;;4141500;28;20425;-88
2023/01/31 04:27:30;;;;;;;17.33;1.83;;;3.80;71.60;;;;;;4139594;28;20026;-88
2023/01/31 04:29:51;;;;;;;15.02;2.15;;;3.80;71.60;;;;;;4142346;28;20034;-87
2023/01/31 04:32:11;;;;;;;14.70;2.00;;;3.70;71.60;;;;;;4144201;28;20123;-87
2023/01/31 04:34:32;;;;;;;12.88;1.77;;;3.70;71.60;;;;;;4140000;28;20061;-87
2023/01/31 04:36:53;;;;;;;22.05;2.45;;;3.70;71.70;;;;;;4143245;28;20043;-88
2023/01/31 04:39:14;;;;;;;20.38;2.83;;;3.70;71.80;;;;;;4145241;28;20061;-89
2023/01/31 04:41:35;;;;;;;10.50;2.08;;;3.70;71.80;;;;;;4145013;28;20100;-88
2023/01/31 04:43:56;;;;;;;23.67;2.45;;;3.80;72.00;;;;;;4145996;28;20120;-88
2023/01/31 04:46:17;;;;;;;21.25;2.00;;;3.70;72.00;;;;;;4149273;28;20029;-89
2023/01/31 04:48:40;;;;;;;14.23;2.35;;;3.70;72.20;;;;;;4149040;28;20033;-89
2023/01/31 04:51:00;;;;;;;11.63;2.22;;;3.70;72.30;;;;;;4146953;28;20033;-88
2023/01/31 04:53:21;;;;;;;20.08;2.65;;;3.70;72.40;;;;;;4144031;28;20026;-89
2023/01/31 04:55:41;;;;;;;21.98;2.17;;;3.70;72.50;;;;;;4141140;28;20048;-88
2023/01/31 04:58:02;;;;;;;17.85;2.25;;;3.70;72.50;;;;;;4150403;28;20049;-93
2023/01/31 05:00:23;;;;;;;19.48;2.30;;;3.80;72.70;;;;;;4147920;28;20038;-88
2023/01/31 05:02:44;;;;;;;15.48;1.52;;;3.70;72.70;;;;;;4160011;28;20002;-87
2023/01/31 05:05:06;;;;;;;19.75;2.03;;;3.70;72.80;;;;;;4149530;28;20064;-88
2023/01/31 05:07:26;;;;;;;16.95;1.77;;;3.70;72.90;;;;;;4151325;28;21514;-87
2023/01/31 05:09:47;;;;;;;23.55;5.18;;;3.80;73.00;;;;;;4150985;28;20029;-88
2023/01/31 05:12:08;;;;;;;77.70;20.85;;;3.80;73.00;;;;;;4150919;28;20032;-88
2023/01/31 05:14:28;;;;;;;34.88;12.27;;;3.70;72.90;;;;;;4151908;28;20033;-87
2023/01/31 05:16:49;;;;;;;27.83;6.10;;;3.70;73.00;;;;;;4148683;28;20038;-88
2023/01/31 05:19:10;;;;;;;17.80;3.95;;;3.80;73.10;;;;;;4146617;28;20490;-88
2023/01/31 05:21:53;;;;;;;12.60;3.10;;;3.80;73.20;;;;;;4148999;28;20516;-88
2023/01/31 05:24:11;;;;;;;11.73;1.88;;;3.80;73.20;;;;;;4148094;28;20072;-87
2023/01/31 05:26:31;;;;;;;14.48;2.95;;;3.80;73.10;;;;;;4143627;28;20108;-89
2023/01/31 05:28:52;;;;;;;15.77;3.00;;;3.80;73.30;;;;;;4150577;28;20081;-89
2023/01/31 05:31:13;;;;;;;18.40;2.58;;;3.80;73.30;;;;;;4150741;28;20053;-87
2023/01/31 05:33:34;;;;;;;15.68;2.22;;;3.80;73.30;;;;;;4153834;28;20276;-87
2023/01/31 05:35:54;;;;;;;15.48;2.10;;;3.80;73.40;;;;;;4154515;28;20029;-87
2023/01/31 05:38:15;;;;;;;13.75;2.05;;;3.80;73.50;;;;;;4141215;28;20033;-88
2023/01/31 05:40:36;;;;;;;15.85;1.45;;;3.80;73.50;;;;;;4136730;28;20091;-88
2023/01/31 05:43:01;;;;;;;12.55;1.77;;;3.80;73.80;;;;;;4152582;28;20028;-86
2023/01/31 05:45:22;;;;;;;15.43;2.03;;;3.80;73.90;;;;;;4149871;28;20033;-87
2023/01/31 05:47:41;;;;;;;17.75;1.98;;;3.80;73.70;;;;;;4152667;28;20064;-87
2023/01/31 05:50:00;;;;;;;13.63;2.00;;;3.90;73.90;;;;;;4153704;28;20113;-88
2023/01/31 05:52:19;;;;;;;14.25;1.90;;;3.80;74.00;;;;;;4150568;28;20144;-88
2023/01/31 05:54:38;;;;;;;21.38;2.45;;;3.80;74.30;;;;;;4153340;28;20080;-88
2023/01/31 05:56:57;;;;;;;18.50;2.00;;;3.90;74.40;;;;;;4149629;28;20056;-88
2023/01/31 05:59:16;;;;;;;19.85;2.85;;;3.90;74.50;;;;;;4151316;28;21053;-87
2023/01/31 06:01:35;;;;;;;17.05;5.38;;;3.90;74.60;;;;;;4149475;28;20045;-87
2023/01/31 06:03:54;;;;;;;21.90;3.58;;;3.90;74.70;;;;;;4156243;28;20036;-88
2023/01/31 06:06:14;;;;;;;17.13;2.15;;;3.90;74.70;;;;;;4153960;28;20527;-88
2023/01/31 06:08:33;;;;;;;20.92;3.13;;;3.90;74.90;;;;;;4151225;28;20055;-88
2023/01/31 06:10:52;;;;;;;14.30;2.05;;;3.90;75.00;;;;;;4152734;28;20091;-88
2023/01/31 06:13:11;;;;;;;25.88;2.28;;;3.90;75.20;;;;;;4166312;28;20539;-89
2023/01/31 06:15:30;;;;;;;9.45;1.75;;;4.10;75.20;;;;;;4152809;28;20058;-88
2023/01/31 06:17:49;;;;;;;18.65;2.45;;;4.00;75.30;;;;;;4155692;28;20160;-89
2023/01/31 06:20:09;;;;;;;19.52;2.40;;;4.00;75.20;;;;;;4154109;28;20060;-87
2023/01/31 06:22:28;;;;;;;24.38;2.85;;;4.00;75.30;;;;;;4161127;28;20850;-89
2023/01/31 06:24:47;;;;;;;15.35;2.00;;;4.00;75.40;;;;;;4182020;28;20112;-88
2023/01/31 06:27:06;;;;;;;17.13;2.65;;;4.00;75.30;;;;;;4162786;28;20029;-89
2023/01/31 06:29:25;;;;;;;16.75;2.15;;;4.00;75.60;;;;;;4154386;28;20037;-88
2023/01/31 06:31:44;;;;;;;24.30;2.78;;;4.10;76.40;;;;;;4154235;28;20052;-88
2023/01/31 06:34:03;;;;;;;17.98;2.08;;;4.10;75.80;;;;;;4156775;28;20044;-87
2023/01/31 06:36:23;;;;;;;25.55;3.72;;;4.10;75.70;;;;;;4156899;28;20086;-89
2023/01/31 06:38:42;;;;;;;29.10;4.18;;;4.10;75.90;;;;;;4151972;28;20045;-89
2023/01/31 06:41:01;;;;;;;22.33;2.33;;;4.10;76.10;;;;;;4156482;28;20429;-88
2023/01/31 06:43:20;;;;;;;25.63;2.40;;;4.20;76.50;;;;;;4164109;28;20094;-87
2023/01/31 06:45:42;;;;;;;34.60;3.58;;;4.20;76.40;;;;;;4156323;28;20095;-88
2023/01/31 06:48:01;;;;;;;19.75;3.03;;;4.20;76.20;;;;;;4151270;28;20087;-88
2023/01/31 06:50:20;;;;;;;23.90;2.28;;;4.20;76.50;;;;;;4149509;28;20545;-88
2023/01/31 06:52:39;;;;;;;24.50;2.45;;;4.30;76.40;;;;;;4151007;28;20097;-89
2023/01/31 06:54:59;;;;;;;22.48;3.72;;;4.30;76.40;;;;;;4152550;28;20096;-88
2023/01/31 06:57:18;;;;;;;25.80;2.65;;;4.30;76.60;;;;;;4156545;28;20056;-89
2023/01/31 06:59:37;;;;;;;21.75;2.58;;;4.30;76.90;;;;;;4153245;28;20536;-89
2023/01/31 07:01:56;;;;;;;30.77;3.03;;;4.50;76.90;;;;;;4152542;28;20067;-89
2023/01/31 07:04:15;;;;;;;22.80;3.28;;;4.40;77.10;;;;;;4154594;28;20032;-89
2023/01/31 07:06:34;;;;;;;30.00;3.47;;;4.40;77.00;;;;;;4154570;28;20071;-88
2023/01/31 07:08:53;;;;;;;32.70;2.90;;;4.40;77.00;;;;;;4148653;28;20052;-89
2023/01/31 07:11:13;;;;;;;25.70;2.80;;;4.50;77.00;;;;;;4152548;28;20068;-89
2023/01/31 07:13:32;;;;;;;26.35;3.20;;;4.50;77.00;;;;;;4154588;28;20032;-89
2023/01/31 07:15:51;;;;;;;33.58;3.28;;;4.50;77.00;;;;;;4152898;28;20049;-88
2023/01/31 07:18:11;;;;;;;27.35;2.88;;;4.50;77.10;;;;;;4150145;28;20033;-89
2023/01/31 07:20:30;;;;;;;31.23;3.17;;;4.50;77.20;;;;;;4155865;28;20151;-89
2023/01/31 07:22:56;;;;;;;27.10;2.97;;;4.60;77.00;;;;;;4157332;28;20445;-88
2023/01/31 07:25:15;;;;;;;33.03;3.83;;;4.60;77.10;;;;;;4150745;28;20041;-88
2023/01/31 07:27:35;;;;;;;39.63;3.25;;;4.60;77.30;;;;;;4153556;28;20041;-89
2023/01/31 07:29:54;;;;;;;30.02;3.33;;;4.60;77.30;;;;;;4150275;28;20130;-88
2023/01/31 07:32:13;;;;;;;26.25;2.95;;;4.60;77.30;;;;;;4156957;28;20053;-89
2023/01/31 07:34:32;;;;;;;22.92;2.58;;;4.70;77.40;;;;;;4152268;28;20063;-88
2023/01/31 07:36:51;;;;;;;33.45;3.45;;;4.70;77.30;;;;;;4149270;28;20044;-88
2023/01/31 07:39:10;;;;;;;31.27;3.10;;;4.70;77.20;;;;;;4151711;28;20041;-89
2023/01/31 07:41:29;;;;;;;28.88;2.53;;;4.70;77.30;;;;;;4150112;28;20075;-89
2023/01/31 07:43:48;;;;;;;28.23;3.30;;;4.70;77.60;;;;;;4152042;28;20033;-88
2023/01/31 07:46:09;;;;;;;30.05;3.08;;;4.70;77.50;;;;;;4157128;28;20906;-89
2023/01/31 07:48:28;;;;;;;24.63;2.88;;;4.80;77.60;;;;;;4153944;28;20144;-89
2023/01/31 07:50:47;;;;;;;34.20;4.55;;;4.80;77.60;;;;;;4157474;28;20180;-89
2023/01/31 07:53:06;;;;;;;24.08;2.85;;;4.80;77.70;;;;;;4154802;28;20048;-89
2023/01/31 07:55:26;;;;;;;33.00;3.67;;;4.80;77.60;;;;;;4174648;28;20555;-89
2023/01/31 07:57:44;;;;;;;28.40;3.35;;;4.80;78.00;;;;;;4150175;28;20057;-88
2023/01/31 08:03:31;;;;;;;29.05;3.30;;;4.90;78.90;;;;;;4152663;28;20033;-89
2023/01/31 08:05:21;;;;;;;27.08;3.63;;;4.90;78.20;;;;;;4150083;28;20029;-89
2023/01/31 08:07:40;;;;;;;36.17;3.80;;;4.90;78.40;;;;;;4156122;28;20093;-88
2023/01/31 08:10:00;;;;;;;19.85;2.95;;;5.00;78.50;;;;;;4149570;28;20077;-88
2023/01/31 08:12:19;;;;;;;30.50;2.70;;;4.90;78.50;;;;;;4156655;28;20040;-89
2023/01/31 08:14:38;;;;;;;24.83;2.90;;;5.00;78.40;;;;;;4156304;28;20045;-89
2023/01/31 08:16:57;;;;;;;22.58;3.05;;;5.00;78.50;;;;;;4152383;28;20504;-88
2023/01/31 08:19:17;;;;;;;20.73;2.75;;;5.00;78.90;;;;;;4148347;28;20084;-89
2023/01/31 08:21:36;;;;;;;21.92;2.35;;;5.00;79.20;;;;;;4158011;28;20040;-90
2023/01/31 08:23:55;;;;;;;17.75;2.63;;;5.00;79.20;;;;;;4183113;28;20027;-89
2023/01/31 08:26:17;;;;;;;21.15;3.30;;;5.00;79.20;;;;;;4155114;28;20036;-90
2023/01/31 08:28:37;;;;;;;20.20;2.40;;;5.00;79.30;;;;;;4153190;28;20164;-89
2023/01/31 08:30:56;;;;;;;23.00;2.78;;;5.10;79.50;;;;;;4154755;28;20612;-88
2023/01/31 08:33:16;;;;;;;15.75;2.90;;;5.00;79.20;;;;;;4158250;28;20150;-89
2023/01/31 08:35:35;;;;;;;22.95;2.85;;;5.10;79.20;;;;;;4153409;28;20043;-88
2023/01/31 08:37:54;;;;;;;24.23;2.70;;;5.10;79.20;;;;;;4157018;28;20174;-89
2023/01/31 08:40:14;;;;;;;28.45;3.22;;;5.10;79.20;;;;;;4157428;28;20148;-88
2023/01/31 08:42:33;;;;;;;19.92;3.10;;;5.10;79.20;;;;;;4155264;28;20053;-89
2023/01/31 08:44:52;;;;;;;21.73;3.42;;;5.10;79.20;;;;;;4152792;28;20813;-89
2023/01/31 08:47:11;;;;;;;16.42;3.17;;;5.10;79.20;;;;;;4178447;28;20035;-89
2023/01/31 08:49:32;;;;;;;20.60;2.92;;;5.10;79.30;;;;;;4157859;28;20489;-89
2023/01/31 08:51:51;;;;;;;19.58;2.90;;;5.10;79.60;;;;;;4158126;28;20079;-89
2023/01/31 08:54:11;;;;;;;19.40;2.92;;;5.10;79.40;;;;;;4154658;28;20571;-88
2023/01/31 08:56:31;;;;;;;25.60;3.45;;;5.20;79.50;;;;;;4153698;28;20219;-89
2023/01/31 08:58:50;;;;;;;22.40;3.42;;;5.20;79.50;;;;;;4157794;28;20573;-88
2023/01/31 09:01:16;;;;;;;29.88;3.42;;;5.20;79.80;;;;;;4152495;28;20490;-88
2023/01/31 09:03:36;;;;;;;31.67;3.92;;;5.20;79.50;;;;;;4153440;28;20088;-89
2023/01/31 09:06:00;;;;;;;21.40;3.53;;;5.20;79.80;;;;;;4154030;28;20075;-89
2023/01/31 09:08:19;;;;;;;21.42;3.42;;;5.20;80.00;;;;;;4155698;28;20448;-88
2023/01/31 09:10:38;;;;;;;21.67;3.35;;;5.20;79.80;;;;;;4155160;28;20540;-89
2023/01/31 09:12:59;;;;;;;16.98;2.70;;;5.30;80.00;;;;;;4157624;28;20532;-89
2023/01/31 09:15:18;;;;;;;24.17;3.20;;;5.30;80.20;;;;;;4160734;28;20072;-88
2023/01/31 09:17:38;;;;;;;16.05;2.53;;;5.30;80.40;;;;;;4151892;28;20049;-88
2023/01/31 09:19:57;;;;;;;22.63;2.95;;;5.30;80.20;;;;;;4152345;28;20088;-87
2023/01/31 09:22:16;;;;;;;23.20;2.97;;;5.30;80.40;;;;;;4174800;28;20399;-87
2023/01/31 09:24:37;;;;;;;16.33;2.50;;;5.30;81.10;;;;;;4148170;28;20025;-88
2023/01/31 09:26:38;;;;;;;24.15;2.95;;;5.50;80.50;;;;;;4143204;28;20029;-88
2023/01/31 09:29:00;;;;;;;19.02;2.83;;;5.40;80.60;;;;;;4155789;28;20026;-87
2023/01/31 09:31:21;;;;;;;14.60;2.47;;;5.30;81.00;;;;;;4152595;28;20112;-88
2023/01/31 09:33:42;;;;;;;13.52;1.88;;;5.40;81.60;;;;;;4156004;28;20044;-89
2023/01/31 09:35:42;;;;;;;19.80;2.70;;;5.40;80.80;;;;;;4142791;28;20049;-88
2023/01/31 09:38:03;;;;;;;15.60;2.53;;;5.40;80.90;;;;;;4153381;28;21006;-87
2023/01/31 09:40:29;;;;;;;12.10;2.42;;;5.40;81.00;;;;;;4153397;28;20029;-88
2023/01/31 09:42:52;;;;;;;19.35;3.30;;;5.50;81.20;;;;;;4153390;28;20026;-88
2023/01/31 09:45:35;;;;;;;16.88;2.67;;;5.50;81.30;;;;;;4150481;28;20036;-88
2023/01/31 09:47:58;;;;;;;16.73;2.38;;;5.50;81.30;;;;;;4151532;28;20038;-87
2023/01/31 09:50:21;;;;;;;21.02;2.85;;;5.50;81.50;;;;;;4154300;28;20117;-88
2023/01/31 09:52:41;;;;;;;16.10;2.45;;;5.50;81.50;;;;;;4154523;28;20075;-89
2023/01/31 09:55:02;;;;;;;19.15;2.78;;;5.60;81.60;;;;;;4154521;28;20032;-88
2023/01/31 09:57:47;;;;;;;14.20;2.67;;;5.60;81.60;;;;;;4150848;28;20091;-88
2023/01/31 10:00:14;;;;;;;20.67;2.95;;;5.60;81.70;;;;;;4181971;28;20027;-88
2023/01/31 10:03:10;;;;;;;20.23;3.33;;;5.60;81.70;;;;;;4151549;28;20054;-88
2023/01/31 10:05:39;;;;;;;;;;;5.70;81.90;;;;;;4155494;28;20082;-89
2023/01/31 10:08:38;;;;;;;14.85;2.35;;;5.70;82.30;;;;;;4153141;28;19913;-88
2023/01/31 10:11:04;;;;;;;13.73;2.63;;;5.70;81.90;;;;;;4176415;28;20325;-88
2023/01/31 10:13:35;;;;;;;18.55;3.58;;;5.70;81.70;;;;;;4154486;28;20076;-88
2023/01/31 10:16:13;;;;;;;22.80;3.92;;;5.80;81.80;;;;;;4157493;28;20032;-88
2023/01/31 10:18:41;;;;;;;19.58;3.25;;;5.80;81.70;;;;;;4178427;28;20041;-88
2023/01/31 10:21:11;;;;;;;13.82;3.10;;;5.80;81.90;;;;;;4153591;28;20509;-88
2023/01/31 10:23:44;;;;;;;13.25;2.30;;;5.80;82.10;;;;;;4152286;28;20039;-87
2023/01/31 10:26:27;;;;;;;14.18;2.50;;;5.80;82.00;;;;;;4156961;28;20104;-88
2023/01/31 10:28:56;;;;;;;12.60;1.95;;;5.90;81.90;;;;;;4147550;28;20042;-88
2023/01/31 10:31:51;;;;;;;11.05;2.10;;;5.90;82.00;;;;;;4155054;28;20413;-88
2023/01/31 10:34:37;;;;;;;10.93;1.75;;;5.90;82.10;;;;;;4122027;28;20042;-88
2023/01/31 10:37:01;;;;;;;10.27;1.70;;;5.90;82.30;;;;;;4121009;28;20030;-88
2023/01/31 10:39:32;;;;;;;11.82;2.17;;;6.00;82.30;;;;;;4108932;28;20023;-89
2023/01/31 10:41:55;;;;;;;10.05;1.52;;;6.00;82.90;;;;;;4115041;28;20035;-88
2023/01/31 10:44:53;;;;;;;12.38;1.98;;;6.00;82.50;;;;;;4108686;28;20114;-88
2023/01/31 10:47:15;;;;;;;6.55;1.35;;;6.00;82.60;;;;;;4120033;28;20529;-89
2023/01/31 10:49:36;;;;;;;8.02;1.55;;;6.00;82.70;;;;;;4119023;28;20065;-89
2023/01/31 10:52:07;;;;;;;9.65;1.98;;;6.00;82.80;;;;;;4117070;28;20097;-88
2023/01/31 10:55:07;;;;;;;14.07;1.70;;;6.00;82.70;;;;;;4107439;28;20095;-88
2023/01/31 10:57:27;;;;;;;11.40;1.67;;;6.10;82.90;;;;;;4118703;28;20038;-88
2023/01/31 10:59:49;;;;;;;5.40;1.58;;;6.10;82.70;;;;;;4106026;28;20035;-88
2023/01/31 11:02:25;;;;;;;8.88;1.42;;;6.10;82.80;;;;;;4119790;28;20085;-88
2023/01/31 11:04:47;;;;;;;11.90;2.13;;;6.20;83.20;;;;;;4119739;28;20027;-87
2023/01/31 11:07:09;;;;;;;9.70;1.88;;;6.10;83.20;;;;;;4119842;28;20117;-88
2023/01/31 11:09:36;;;;;;;10.02;2.15;;;6.10;83.50;;;;;;4132227;28;20037;-89
2023/01/31 11:12:00;;;;;;;9.93;2.15;;;6.10;83.70;;;;;;4156284;28;20044;-87
2023/01/31 11:14:19;;;;;;;9.82;1.73;;;6.10;83.60;;;;;;4150587;28;20082;-89
2023/01/31 11:16:39;;;;;;;10.95;2.10;;;6.10;84.00;;;;;;4153288;28;20036;-89
2023/01/31 11:19:02;;;;;;;15.18;1.77;;;6.20;84.20;;;;;;4151716;28;20449;-88
2023/01/31 11:21:33;;;;;;;8.90;1.52;;;6.20;84.30;;;;;;4150963;28;20152;-88
2023/01/31 11:24:04;;;;;;;13.68;2.00;;;6.20;84.40;;;;;;4155004;28;20452;-88
2023/01/31 11:26:36;;;;;;;9.27;1.88;;;6.20;84.40;;;;;;4153778;28;20033;-89
2023/01/31 11:28:56;;;;;;;11.80;1.80;;;6.20;84.60;;;;;;4154626;28;20040;-88
2023/01/31 11:31:28;;;;;;;17.70;2.65;;;6.30;84.60;;;;;;4150823;28;20037;-88
2023/01/31 11:34:02;;;;;;;16.23;2.17;;;6.30;84.80;;;;;;4146455;28;20413;-88
2023/01/31 11:36:23;;;;;;;14.88;2.42;;;6.40;85.00;;;;;;4149534;28;20185;-89
2023/01/31 11:38:42;;;;;;;17.95;2.67;;;6.30;85.00;;;;;;4154348;28;20049;-87
2023/01/31 11:41:26;;;;;;;20.33;2.72;;;6.40;85.00;;;;;;4150171;28;20028;-89
2023/01/31 11:43:45;;;;;;;9.20;1.95;;;6.40;85.10;;;;;;4147632;28;20049;-89
2023/01/31 11:46:07;;;;;;;12.07;1.88;;;6.50;85.00;;;;;;4155118;28;20215;-90
2023/01/31 11:48:38;;;;;;;10.52;1.63;;;6.50;84.80;;;;;;4158422;28;20068;-89
2023/01/31 11:51:01;;;;;;;13.27;2.30;;;6.50;84.80;;;;;;4155454;28;20631;-88
2023/01/31 11:53:25;;;;;;;9.65;2.10;;;6.50;84.70;;;;;;4151616;28;20041;-88
2023/01/31 11:55:45;;;;;;;;;;;6.50;84.90;;;;;;4154807;28;20091;-88
2023/01/31 11:58:28;;;;;;;6.35;1.35;;;6.60;84.90;;;;;;4153048;28;19955;-87
2023/01/31 12:00:57;;;;;;;9.25;1.70;;;6.60;84.60;;;;;;4167723;28;20627;-89
2023/01/31 12:03:17;;;;;;;9.98;1.90;;;6.60;84.60;;;;;;4157054;28;20087;-89
2023/01/31 12:05:42;;;;;;;14.48;2.20;;;6.60;84.50;;;;;;4159308;28;20104;-89
2023/01/31 12:08:01;;;;;;;18.23;2.92;;;6.60;84.50;;;;;;4153205;28;20044;-89
2023/01/31 12:10:31;;;;;;;31.30;3.50;;;6.80;84.50;;;;;;4160364;28;20100;-89